sensor_id;sensor_type;location;lat;lon;timestamp;P1;durP1;ratioP1;P2;durP2;ratioP2
43552;SDS011;29153;42.696;23.218;2023-11-22T00:01:29;17.52;;;9.40;;
43552;SDS011;29153;42.696;23.218;2023-11-22T00:03:56;19.37;;;9.63;;
43552;SDS011;29153;42.696;23.218;2023-11-22T00:06:24;19.23;;;9.33;;
43552;SDS011;29153;42.696;23.218;2023-11-22T00:08:52;21.23;;;11.60;;
43552;SDS011;29153;42.696;23.218;2023-11-22T00:11:20;19.17;;;10.23;;
43552;SDS011;29153;42.696;23.218;2023-11-22T00:13:47;17.07;;;8.98;;
43552;SDS011;29153;42.696;23.218;2023-11-22T00:16:16;18.25;;;9.70;;
43552;SDS011;29153;42.696;23.218;2023-11-22T00:18:44;15.65;;;9.00;;
43552;SDS011;29153;42.696;23.218;2023-11-22T00:21:12;20.23;;;9.15;;
43552;SDS011;29153;42.696;23.218;2023-11-22T00:23:39;19.95;;;10.28;;
43552;SDS011;29153;42.696;23.218;2023-11-22T00:26:07;24.05;;;10.53;;
43552;SDS011;29153;42.696;23.218;2023-11-22T00:28:34;21.62;;;11.15;;
43552;SDS011;29153;42.696;23.218;2023-11-22T00:31:02;17.75;;;9.73;;
43552;SDS011;29153;42.696;23.218;2023-11-22T00:33:29;20.02;;;10.03;;
43552;SDS011;29153;42.696;23.218;2023-11-22T00:35:57;18.02;;;9.63;;
43552;SDS011;29153;42.696;23.218;2023-11-22T00:38:24;19.77;;;10.45;;
43552;SDS011;29153;42.696;23.218;2023-11-22T00:40:52;16.12;;;9.20;;
43552;SDS011;29153;42.696;23.218;2023-11-22T00:43:19;19.15;;;10.18;;
43552;SDS011;29153;42.696;23.218;2023-11-22T00:45:47;21.07;;;9.60;;
43552;SDS011;29153;42.696;23.218;2023-11-22T00:48:15;19.85;;;9.38;;
43552;SDS011;29153;42.696;23.218;2023-11-22T00:50:42;17.30;;;8.38;;
43552;SDS011;29153;42.696;23.218;2023-11-22T00:53:10;18.62;;;9.98;;
43552;SDS011;29153;42.696;23.218;2023-11-22T00:55:37;16.70;;;8.80;;
43552;SDS011;29153;42.696;23.218;2023-11-22T00:58:05;16.57;;;9.00;;
43552;SDS011;29153;42.696;23.218;2023-11-22T01:00:33;20.88;;;9.80;;
43552;SDS011;29153;42.696;23.218;2023-11-22T01:03:00;21.57;;;10.98;;
43552;SDS011;29153;42.696;23.218;2023-11-22T01:05:29;18.02;;;9.95;;
43552;SDS011;29153;42.696;23.218;2023-11-22T01:07:57;22.93;;;10.68;;
43552;SDS011;29153;42.696;23.218;2023-11-22T01:10:24;21.30;;;10.72;;
43552;SDS011;29153;42.696;23.218;2023-11-22T01:12:52;18.52;;;9.60;;
43552;SDS011;29153;42.696;23.218;2023-11-22T01:15:20;17.17;;;9.10;;
43552;SDS011;29153;42.696;23.218;2023-11-22T01:17:47;20.45;;;9.05;;
43552;SDS011;29153;42.696;23.218;2023-11-22T01:20:15;18.55;;;9.00;;
43552;SDS011;29153;42.696;23.218;2023-11-22T01:22:43;18.90;;;10.48;;
43552;SDS011;29153;42.696;23.218;2023-11-22T01:25:10;20.85;;;10.63;;
43552;SDS011;29153;42.696;23.218;2023-11-22T01:27:38;18.00;;;9.65;;
43552;SDS011;29153;42.696;23.218;2023-11-22T01:30:05;18.02;;;9.18;;
43552;SDS011;29153;42.696;23.218;2023-11-22T01:32:33;17.27;;;8.88;;
43552;SDS011;29153;42.696;23.218;2023-11-22T01:35:01;15.38;;;8.68;;
43552;SDS011;29153;42.696;23.218;2023-11-22T01:37:30;16.00;;;9.95;;
43552;SDS011;29153;42.696;23.218;2023-11-22T01:39:58;21.33;;;10.82;;
43552;SDS011;29153;42.696;23.218;2023-11-22T01:42:27;18.77;;;9.48;;
43552;SDS011;29153;42.696;23.218;2023-11-22T01:44:55;22.70;;;9.60;;
43552;SDS011;29153;42.696;23.218;2023-11-22T01:47:23;19.37;;;9.48;;
43552;SDS011;29153;42.696;23.218;2023-11-22T01:49:51;19.27;;;9.63;;
43552;SDS011;29153;42.696;23.218;2023-11-22T01:52:19;17.60;;;8.95;;
43552;SDS011;29153;42.696;23.218;2023-11-22T01:54:47;17.65;;;9.53;;
43552;SDS011;29153;42.696;23.218;2023-11-22T01:57:14;16.00;;;8.90;;
43552;SDS011;29153;42.696;23.218;2023-11-22T01:59:42;18.80;;;9.13;;
43552;SDS011;29153;42.696;23.218;2023-11-22T02:02:11;19.77;;;9.65;;
43552;SDS011;29153;42.696;23.218;2023-11-22T02:04:39;18.87;;;9.65;;
43552;SDS011;29153;42.696;23.218;2023-11-22T02:07:06;18.05;;;9.30;;
43552;SDS011;29153;42.696;23.218;2023-11-22T02:09:34;17.32;;;9.00;;
43552;SDS011;29153;42.696;23.218;2023-11-22T02:12:01;17.95;;;8.93;;
43552;SDS011;29153;42.696;23.218;2023-11-22T02:14:29;18.12;;;10.10;;
43552;SDS011;29153;42.696;23.218;2023-11-22T02:16:56;18.98;;;9.48;;
43552;SDS011;29153;42.696;23.218;2023-11-22T02:19:24;17.95;;;9.80;;
43552;SDS011;29153;42.696;23.218;2023-11-22T02:21:51;17.48;;;9.30;;
43552;SDS011;29153;42.696;23.218;2023-11-22T02:24:19;18.35;;;10.00;;
43552;SDS011;29153;42.696;23.218;2023-11-22T02:26:47;18.07;;;9.15;;
43552;SDS011;29153;42.696;23.218;2023-11-22T02:29:14;16.55;;;8.98;;
43552;SDS011;29153;42.696;23.218;2023-11-22T02:31:42;18.48;;;9.58;;
43552;SDS011;29153;42.696;23.218;2023-11-22T02:34:10;18.15;;;9.15;;
43552;SDS011;29153;42.696;23.218;2023-11-22T02:36:37;17.35;;;8.45;;
43552;SDS011;29153;42.696;23.218;2023-11-22T02:39:05;15.45;;;7.75;;
43552;SDS011;29153;42.696;23.218;2023-11-22T02:41:32;19.02;;;9.50;;
43552;SDS011;29153;42.696;23.218;2023-11-22T02:44:00;14.98;;;8.68;;
43552;SDS011;29153;42.696;23.218;2023-11-22T02:46:28;17.27;;;8.70;;
43552;SDS011;29153;42.696;23.218;2023-11-22T02:48:56;19.25;;;9.25;;
43552;SDS011;29153;42.696;23.218;2023-11-22T02:51:24;16.90;;;7.97;;
43552;SDS011;29153;42.696;23.218;2023-11-22T02:53:53;17.67;;;8.75;;
43552;SDS011;29153;42.696;23.218;2023-11-22T02:56:20;19.92;;;8.85;;
43552;SDS011;29153;42.696;23.218;2023-11-22T02:58:48;15.93;;;8.65;;
43552;SDS011;29153;42.696;23.218;2023-11-22T03:01:16;18.70;;;8.40;;
43552;SDS011;29153;42.696;23.218;2023-11-22T03:03:43;15.63;;;8.10;;
43552;SDS011;29153;42.696;23.218;2023-11-22T03:06:11;16.07;;;8.13;;
43552;SDS011;29153;42.696;23.218;2023-11-22T03:08:38;16.25;;;8.70;;
43552;SDS011;29153;42.696;23.218;2023-11-22T03:11:06;17.42;;;8.55;;
43552;SDS011;29153;42.696;23.218;2023-11-22T03:13:33;17.12;;;8.25;;
43552;SDS011;29153;42.696;23.218;2023-11-22T03:16:00;15.28;;;8.00;;
43552;SDS011;29153;42.696;23.218;2023-11-22T03:18:29;14.05;;;7.50;;
43552;SDS011;29153;42.696;23.218;2023-11-22T03:20:56;17.20;;;8.45;;
43552;SDS011;29153;42.696;23.218;2023-11-22T03:23:25;16.15;;;8.20;;
43552;SDS011;29153;42.696;23.218;2023-11-22T03:25:52;15.30;;;7.85;;
43552;SDS011;29153;42.696;23.218;2023-11-22T03:28:20;14.15;;;7.62;;
43552;SDS011;29153;42.696;23.218;2023-11-22T03:30:48;16.10;;;7.97;;
43552;SDS011;29153;42.696;23.218;2023-11-22T03:33:15;14.85;;;8.05;;
43552;SDS011;29153;42.696;23.218;2023-11-22T03:35:43;15.72;;;7.72;;
43552;SDS011;29153;42.696;23.218;2023-11-22T03:38:10;11.85;;;6.87;;
43552;SDS011;29153;42.696;23.218;2023-11-22T03:40:38;16.25;;;7.28;;
43552;SDS011;29153;42.696;23.218;2023-11-22T03:43:05;15.32;;;7.53;;
43552;SDS011;29153;42.696;23.218;2023-11-22T03:45:35;17.37;;;7.97;;
43552;SDS011;29153;42.696;23.218;2023-11-22T03:48:03;13.75;;;7.50;;
43552;SDS011;29153;42.696;23.218;2023-11-22T03:50:30;13.65;;;7.05;;
43552;SDS011;29153;42.696;23.218;2023-11-22T03:52:58;14.95;;;7.58;;
43552;SDS011;29153;42.696;23.218;2023-11-22T03:55:25;12.95;;;6.80;;
43552;SDS011;29153;42.696;23.218;2023-11-22T03:57:52;15.83;;;8.10;;
43552;SDS011;29153;42.696;23.218;2023-11-22T04:00:20;13.58;;;7.45;;
43552;SDS011;29153;42.696;23.218;2023-11-22T04:02:49;15.18;;;7.90;;
43552;SDS011;29153;42.696;23.218;2023-11-22T04:05:17;14.68;;;7.22;;
43552;SDS011;29153;42.696;23.218;2023-11-22T04:07:45;16.85;;;7.03;;
43552;SDS011;29153;42.696;23.218;2023-11-22T04:10:13;14.50;;;7.03;;
43552;SDS011;29153;42.696;23.218;2023-11-22T04:12:41;13.98;;;8.35;;
43552;SDS011;29153;42.696;23.218;2023-11-22T04:15:08;16.30;;;7.58;;
43552;SDS011;29153;42.696;23.218;2023-11-22T04:17:36;15.13;;;7.28;;
43552;SDS011;29153;42.696;23.218;2023-11-22T04:20:05;16.52;;;7.47;;
43552;SDS011;29153;42.696;23.218;2023-11-22T04:22:35;13.85;;;6.85;;
43552;SDS011;29153;42.696;23.218;2023-11-22T04:25:03;15.25;;;6.95;;
43552;SDS011;29153;42.696;23.218;2023-11-22T04:27:32;14.07;;;6.85;;
43552;SDS011;29153;42.696;23.218;2023-11-22T04:30:00;16.25;;;8.18;;
43552;SDS011;29153;42.696;23.218;2023-11-22T04:32:27;14.87;;;7.22;;
43552;SDS011;29153;42.696;23.218;2023-11-22T04:34:55;16.45;;;7.95;;
43552;SDS011;29153;42.696;23.218;2023-11-22T04:37:24;13.28;;;7.50;;
43552;SDS011;29153;42.696;23.218;2023-11-22T04:39:52;16.10;;;8.43;;
43552;SDS011;29153;42.696;23.218;2023-11-22T04:42:19;15.95;;;7.78;;
43552;SDS011;29153;42.696;23.218;2023-11-22T04:44:47;13.58;;;7.72;;
43552;SDS011;29153;42.696;23.218;2023-11-22T04:47:14;14.55;;;7.40;;
43552;SDS011;29153;42.696;23.218;2023-11-22T04:49:42;14.47;;;6.85;;
43552;SDS011;29153;42.696;23.218;2023-11-22T04:52:09;12.58;;;6.90;;
43552;SDS011;29153;42.696;23.218;2023-11-22T04:54:37;13.95;;;6.80;;
43552;SDS011;29153;42.696;23.218;2023-11-22T04:57:05;15.45;;;7.40;;
43552;SDS011;29153;42.696;23.218;2023-11-22T04:59:32;14.00;;;7.45;;
43552;SDS011;29153;42.696;23.218;2023-11-22T05:02:00;13.75;;;6.95;;
43552;SDS011;29153;42.696;23.218;2023-11-22T05:04:27;15.72;;;7.17;;
43552;SDS011;29153;42.696;23.218;2023-11-22T05:06:55;14.25;;;7.10;;
43552;SDS011;29153;42.696;23.218;2023-11-22T05:09:22;13.10;;;7.15;;
43552;SDS011;29153;42.696;23.218;2023-11-22T05:11:50;13.95;;;6.65;;
43552;SDS011;29153;42.696;23.218;2023-11-22T05:14:20;13.28;;;6.78;;
43552;SDS011;29153;42.696;23.218;2023-11-22T05:16:49;13.38;;;6.78;;
43552;SDS011;29153;42.696;23.218;2023-11-22T05:19:17;12.75;;;6.83;;
43552;SDS011;29153;42.696;23.218;2023-11-22T05:21:45;13.55;;;7.12;;
43552;SDS011;29153;42.696;23.218;2023-11-22T05:24:13;14.73;;;6.95;;
43552;SDS011;29153;42.696;23.218;2023-11-22T05:26:40;10.15;;;5.72;;
43552;SDS011;29153;42.696;23.218;2023-11-22T05:29:08;12.35;;;6.37;;
43552;SDS011;29153;42.696;23.218;2023-11-22T05:31:35;12.85;;;6.80;;
43552;SDS011;29153;42.696;23.218;2023-11-22T05:34:03;10.10;;;5.85;;
43552;SDS011;29153;42.696;23.218;2023-11-22T05:36:31;14.38;;;6.75;;
43552;SDS011;29153;42.696;23.218;2023-11-22T05:38:58;14.75;;;8.03;;
43552;SDS011;29153;42.696;23.218;2023-11-22T05:41:26;13.45;;;8.38;;
43552;SDS011;29153;42.696;23.218;2023-11-22T05:43:53;13.62;;;7.72;;
43552;SDS011;29153;42.696;23.218;2023-11-22T05:46:24;14.80;;;8.28;;
43552;SDS011;29153;42.696;23.218;2023-11-22T05:48:51;17.25;;;8.45;;
43552;SDS011;29153;42.696;23.218;2023-11-22T05:51:19;16.02;;;7.83;;
43552;SDS011;29153;42.696;23.218;2023-11-22T05:53:47;13.60;;;7.70;;
43552;SDS011;29153;42.696;23.218;2023-11-22T05:56:15;16.32;;;8.95;;
43552;SDS011;29153;42.696;23.218;2023-11-22T05:58:42;16.67;;;10.10;;
43552;SDS011;29153;42.696;23.218;2023-11-22T06:01:10;15.60;;;8.78;;
43552;SDS011;29153;42.696;23.218;2023-11-22T06:03:38;16.62;;;8.98;;
43552;SDS011;29153;42.696;23.218;2023-11-22T06:06:06;21.55;;;8.53;;
43552;SDS011;29153;42.696;23.218;2023-11-22T06:08:34;17.55;;;8.78;;
43552;SDS011;29153;42.696;23.218;2023-11-22T06:11:01;21.62;;;10.93;;
43552;SDS011;29153;42.696;23.218;2023-11-22T06:13:29;18.60;;;10.85;;
43552;SDS011;29153;42.696;23.218;2023-11-22T06:15:57;16.73;;;9.90;;
43552;SDS011;29153;42.696;23.218;2023-11-22T06:18:24;18.25;;;11.80;;
43552;SDS011;29153;42.696;23.218;2023-11-22T06:20:53;19.80;;;10.82;;
43552;SDS011;29153;42.696;23.218;2023-11-22T06:23:21;16.67;;;10.32;;
43552;SDS011;29153;42.696;23.218;2023-11-22T06:25:48;18.30;;;10.53;;
43552;SDS011;29153;42.696;23.218;2023-11-22T06:28:17;16.27;;;8.58;;
43552;SDS011;29153;42.696;23.218;2023-11-22T06:30:44;15.48;;;8.98;;
43552;SDS011;29153;42.696;23.218;2023-11-22T06:33:12;16.80;;;8.93;;
43552;SDS011;29153;42.696;23.218;2023-11-22T06:35:40;21.12;;;8.83;;
43552;SDS011;29153;42.696;23.218;2023-11-22T06:38:08;18.23;;;9.95;;
43552;SDS011;29153;42.696;23.218;2023-11-22T06:40:36;16.35;;;9.50;;
43552;SDS011;29153;42.696;23.218;2023-11-22T06:43:03;19.00;;;8.73;;
43552;SDS011;29153;42.696;23.218;2023-11-22T06:45:31;16.75;;;8.85;;
43552;SDS011;29153;42.696;23.218;2023-11-22T06:47:58;14.90;;;9.43;;
43552;SDS011;29153;42.696;23.218;2023-11-22T06:50:26;17.20;;;8.85;;
43552;SDS011;29153;42.696;23.218;2023-11-22T06:52:54;21.48;;;8.70;;
43552;SDS011;29153;42.696;23.218;2023-11-22T06:55:21;14.95;;;9.10;;
43552;SDS011;29153;42.696;23.218;2023-11-22T06:57:49;16.23;;;9.68;;
43552;SDS011;29153;42.696;23.218;2023-11-22T07:00:17;15.05;;;9.53;;
43552;SDS011;29153;42.696;23.218;2023-11-22T07:02:46;15.05;;;9.80;;
43552;SDS011;29153;42.696;23.218;2023-11-22T07:05:13;16.52;;;9.20;;
43552;SDS011;29153;42.696;23.218;2023-11-22T07:07:40;16.70;;;9.50;;
43552;SDS011;29153;42.696;23.218;2023-11-22T07:10:08;15.78;;;9.58;;
43552;SDS011;29153;42.696;23.218;2023-11-22T07:12:37;18.57;;;9.35;;
43552;SDS011;29153;42.696;23.218;2023-11-22T07:17:32;15.28;;;8.40;;
43552;SDS011;29153;42.696;23.218;2023-11-22T07:20:00;16.93;;;8.90;;
43552;SDS011;29153;42.696;23.218;2023-11-22T07:22:28;14.13;;;8.53;;
43552;SDS011;29153;42.696;23.218;2023-11-22T07:24:56;16.10;;;9.63;;
43552;SDS011;29153;42.696;23.218;2023-11-22T07:27:25;16.87;;;9.40;;
43552;SDS011;29153;42.696;23.218;2023-11-22T07:29:52;17.32;;;9.05;;
43552;SDS011;29153;42.696;23.218;2023-11-22T07:32:20;17.45;;;9.20;;
43552;SDS011;29153;42.696;23.218;2023-11-22T07:34:48;16.27;;;8.35;;
43552;SDS011;29153;42.696;23.218;2023-11-22T07:37:17;17.02;;;11.10;;
43552;SDS011;29153;42.696;23.218;2023-11-22T07:39:46;15.38;;;9.25;;
43552;SDS011;29153;42.696;23.218;2023-11-22T07:42:15;16.77;;;9.85;;
43552;SDS011;29153;42.696;23.218;2023-11-22T07:44:43;15.00;;;8.08;;
43552;SDS011;29153;42.696;23.218;2023-11-22T07:47:11;15.48;;;10.20;;
43552;SDS011;29153;42.696;23.218;2023-11-22T07:49:39;18.57;;;10.05;;
43552;SDS011;29153;42.696;23.218;2023-11-22T07:52:07;17.65;;;10.48;;
43552;SDS011;29153;42.696;23.218;2023-11-22T07:54:36;31.95;;;15.53;;
43552;SDS011;29153;42.696;23.218;2023-11-22T07:57:04;26.35;;;13.93;;
43552;SDS011;29153;42.696;23.218;2023-11-22T07:59:32;24.95;;;14.80;;
43552;SDS011;29153;42.696;23.218;2023-11-22T08:02:00;19.23;;;11.30;;
43552;SDS011;29153;42.696;23.218;2023-11-22T08:04:29;22.00;;;11.50;;
43552;SDS011;29153;42.696;23.218;2023-11-22T08:06:57;22.60;;;13.05;;
43552;SDS011;29153;42.696;23.218;2023-11-22T08:09:27;20.82;;;12.82;;
43552;SDS011;29153;42.696;23.218;2023-11-22T08:11:58;21.73;;;11.90;;
43552;SDS011;29153;42.696;23.218;2023-11-22T08:14:27;21.25;;;10.05;;
43552;SDS011;29153;42.696;23.218;2023-11-22T08:16:55;29.82;;;17.42;;
43552;SDS011;29153;42.696;23.218;2023-11-22T08:19:23;26.37;;;14.30;;
43552;SDS011;29153;42.696;23.218;2023-11-22T08:21:52;19.67;;;12.35;;
43552;SDS011;29153;42.696;23.218;2023-11-22T08:24:20;50.67;;;30.50;;
43552;SDS011;29153;42.696;23.218;2023-11-22T08:26:47;29.15;;;18.65;;
43552;SDS011;29153;42.696;23.218;2023-11-22T08:29:15;24.85;;;14.33;;
43552;SDS011;29153;42.696;23.218;2023-11-22T08:31:42;25.70;;;13.35;;
43552;SDS011;29153;42.696;23.218;2023-11-22T08:34:10;26.00;;;12.58;;
43552;SDS011;29153;42.696;23.218;2023-11-22T08:36:38;23.52;;;12.53;;
43552;SDS011;29153;42.696;23.218;2023-11-22T08:39:05;25.52;;;11.95;;
43552;SDS011;29153;42.696;23.218;2023-11-22T08:41:33;23.67;;;12.37;;
43552;SDS011;29153;42.696;23.218;2023-11-22T08:44:00;29.25;;;16.62;;
43552;SDS011;29153;42.696;23.218;2023-11-22T08:46:29;29.10;;;17.73;;
43552;SDS011;29153;42.696;23.218;2023-11-22T08:48:57;57.25;;;25.35;;
43552;SDS011;29153;42.696;23.218;2023-11-22T08:51:24;41.73;;;22.35;;
43552;SDS011;29153;42.696;23.218;2023-11-22T08:53:52;32.08;;;16.42;;
43552;SDS011;29153;42.696;23.218;2023-11-22T08:56:20;33.42;;;18.37;;
43552;SDS011;29153;42.696;23.218;2023-11-22T08:58:47;36.25;;;19.80;;
43552;SDS011;29153;42.696;23.218;2023-11-22T09:01:15;38.13;;;20.50;;
43552;SDS011;29153;42.696;23.218;2023-11-22T09:03:44;33.00;;;17.30;;
43552;SDS011;29153;42.696;23.218;2023-11-22T09:06:11;33.40;;;19.50;;
43552;SDS011;29153;42.696;23.218;2023-11-22T09:08:39;29.60;;;16.25;;
43552;SDS011;29153;42.696;23.218;2023-11-22T09:11:06;22.42;;;12.68;;
43552;SDS011;29153;42.696;23.218;2023-11-22T09:13:35;28.00;;;14.43;;
43552;SDS011;29153;42.696;23.218;2023-11-22T09:16:03;30.68;;;13.48;;
43552;SDS011;29153;42.696;23.218;2023-11-22T09:18:33;28.42;;;12.07;;
43552;SDS011;29153;42.696;23.218;2023-11-22T09:21:00;44.85;;;18.85;;
43552;SDS011;29153;42.696;23.218;2023-11-22T09:23:28;36.30;;;17.87;;
43552;SDS011;29153;42.696;23.218;2023-11-22T09:25:56;32.03;;;14.93;;
43552;SDS011;29153;42.696;23.218;2023-11-22T09:28:23;31.23;;;14.87;;
43552;SDS011;29153;42.696;23.218;2023-11-22T09:30:51;26.95;;;13.65;;
43552;SDS011;29153;42.696;23.218;2023-11-22T09:33:18;27.32;;;13.70;;
43552;SDS011;29153;42.696;23.218;2023-11-22T09:35:47;26.85;;;13.78;;
43552;SDS011;29153;42.696;23.218;2023-11-22T09:38:15;18.98;;;11.97;;
43552;SDS011;29153;42.696;23.218;2023-11-22T09:40:46;20.52;;;11.73;;
43552;SDS011;29153;42.696;23.218;2023-11-22T09:43:18;19.92;;;10.70;;
43552;SDS011;29153;42.696;23.218;2023-11-22T09:45:48;17.73;;;9.35;;
43552;SDS011;29153;42.696;23.218;2023-11-22T09:53:33;22.52;;;10.13;;
43552;SDS011;29153;42.696;23.218;2023-11-22T09:56:15;20.35;;;12.00;;
43552;SDS011;29153;42.696;23.218;2023-11-22T09:58:44;21.87;;;11.57;;
43552;SDS011;29153;42.696;23.218;2023-11-22T10:01:13;24.57;;;11.28;;
43552;SDS011;29153;42.696;23.218;2023-11-22T10:03:40;18.15;;;9.33;;
43552;SDS011;29153;42.696;23.218;2023-11-22T10:06:08;18.55;;;10.78;;
43552;SDS011;29153;42.696;23.218;2023-11-22T10:08:36;20.17;;;10.65;;
43552;SDS011;29153;42.696;23.218;2023-11-22T10:11:04;17.15;;;9.50;;
43552;SDS011;29153;42.696;23.218;2023-11-22T10:13:32;20.92;;;10.53;;
43552;SDS011;29153;42.696;23.218;2023-11-22T10:16:13;19.82;;;10.98;;
43552;SDS011;29153;42.696;23.218;2023-11-22T10:18:43;42.58;;;21.68;;
43552;SDS011;29153;42.696;23.218;2023-11-22T10:21:27;27.27;;;15.18;;
43552;SDS011;29153;42.696;23.218;2023-11-22T10:24:01;18.40;;;10.55;;
43552;SDS011;29153;42.696;23.218;2023-11-22T10:26:29;19.45;;;11.68;;
43552;SDS011;29153;42.696;23.218;2023-11-22T10:28:58;20.20;;;12.37;;
43552;SDS011;29153;42.696;23.218;2023-11-22T10:31:26;27.20;;;15.93;;
43552;SDS011;29153;42.696;23.218;2023-11-22T10:33:54;24.35;;;14.07;;
43552;SDS011;29153;42.696;23.218;2023-11-22T10:36:23;26.02;;;14.50;;
43552;SDS011;29153;42.696;23.218;2023-11-22T10:38:51;22.50;;;13.15;;
43552;SDS011;29153;42.696;23.218;2023-11-22T10:41:20;28.55;;;16.75;;
43552;SDS011;29153;42.696;23.218;2023-11-22T10:43:48;24.35;;;13.62;;
43552;SDS011;29153;42.696;23.218;2023-11-22T10:46:21;28.57;;;15.30;;
43552;SDS011;29153;42.696;23.218;2023-11-22T10:48:55;27.07;;;16.90;;
43552;SDS011;29153;42.696;23.218;2023-11-22T10:53:51;30.50;;;16.77;;
43552;SDS011;29153;42.696;23.218;2023-11-22T10:56:20;28.83;;;16.42;;
43552;SDS011;29153;42.696;23.218;2023-11-22T10:58:56;31.70;;;15.93;;
43552;SDS011;29153;42.696;23.218;2023-11-22T11:04:45;26.00;;;15.55;;
43552;SDS011;29153;42.696;23.218;2023-11-22T11:07:14;26.02;;;16.52;;
43552;SDS011;29153;42.696;23.218;2023-11-22T11:09:44;31.33;;;17.23;;
43552;SDS011;29153;42.696;23.218;2023-11-22T11:12:13;31.30;;;17.00;;
43552;SDS011;29153;42.696;23.218;2023-11-22T11:14:41;29.75;;;16.40;;
43552;SDS011;29153;42.696;23.218;2023-11-22T11:17:11;28.27;;;15.78;;
43552;SDS011;29153;42.696;23.218;2023-11-22T11:19:40;24.23;;;14.83;;
43552;SDS011;29153;42.696;23.218;2023-11-22T11:22:08;23.12;;;14.45;;
43552;SDS011;29153;42.696;23.218;2023-11-22T11:24:40;24.60;;;15.20;;
43552;SDS011;29153;42.696;23.218;2023-11-22T11:27:10;30.72;;;14.53;;
43552;SDS011;29153;42.696;23.218;2023-11-22T11:29:37;30.52;;;14.50;;
43552;SDS011;29153;42.696;23.218;2023-11-22T11:32:13;32.25;;;16.15;;
43552;SDS011;29153;42.696;23.218;2023-11-22T11:34:48;32.25;;;19.15;;
43552;SDS011;29153;42.696;23.218;2023-11-22T11:37:18;35.60;;;21.48;;
43552;SDS011;29153;42.696;23.218;2023-11-22T11:39:48;35.98;;;20.60;;
43552;SDS011;29153;42.696;23.218;2023-11-22T11:42:15;37.67;;;18.50;;
43552;SDS011;29153;42.696;23.218;2023-11-22T11:47:31;42.85;;;21.93;;
43552;SDS011;29153;42.696;23.218;2023-11-22T11:49:59;37.58;;;19.50;;
43552;SDS011;29153;42.696;23.218;2023-11-22T11:52:28;36.58;;;21.52;;
43552;SDS011;29153;42.696;23.218;2023-11-22T11:54:57;35.50;;;21.00;;
43552;SDS011;29153;42.696;23.218;2023-11-22T11:57:25;38.55;;;23.85;;
43552;SDS011;29153;42.696;23.218;2023-11-22T11:59:52;41.58;;;24.05;;
43552;SDS011;29153;42.696;23.218;2023-11-22T12:02:21;39.67;;;24.63;;
43552;SDS011;29153;42.696;23.218;2023-11-22T12:04:49;34.92;;;19.25;;
43552;SDS011;29153;42.696;23.218;2023-11-22T12:07:16;32.05;;;19.05;;
43552;SDS011;29153;42.696;23.218;2023-11-22T12:09:44;27.45;;;18.17;;
43552;SDS011;29153;42.696;23.218;2023-11-22T12:12:13;28.87;;;17.17;;
43552;SDS011;29153;42.696;23.218;2023-11-22T12:14:40;30.88;;;18.10;;
43552;SDS011;29153;42.696;23.218;2023-11-22T12:17:09;26.00;;;16.37;;
43552;SDS011;29153;42.696;23.218;2023-11-22T12:19:36;24.30;;;12.80;;
43552;SDS011;29153;42.696;23.218;2023-11-22T12:22:04;23.32;;;13.05;;
43552;SDS011;29153;42.696;23.218;2023-11-22T12:24:33;37.00;;;21.90;;
43552;SDS011;29153;42.696;23.218;2023-11-22T12:27:03;34.80;;;21.65;;
43552;SDS011;29153;42.696;23.218;2023-11-22T12:29:35;32.73;;;20.02;;
43552;SDS011;29153;42.696;23.218;2023-11-22T12:32:02;32.25;;;20.10;;
43552;SDS011;29153;42.696;23.218;2023-11-22T12:34:31;27.02;;;17.45;;
43552;SDS011;29153;42.696;23.218;2023-11-22T12:36:59;28.73;;;17.23;;
43552;SDS011;29153;42.696;23.218;2023-11-22T12:39:27;35.80;;;20.50;;
43552;SDS011;29153;42.696;23.218;2023-11-22T12:41:57;41.02;;;24.45;;
43552;SDS011;29153;42.696;23.218;2023-11-22T12:44:25;36.65;;;22.05;;
43552;SDS011;29153;42.696;23.218;2023-11-22T12:46:54;38.25;;;25.37;;
43552;SDS011;29153;42.696;23.218;2023-11-22T12:49:27;39.05;;;25.40;;
43552;SDS011;29153;42.696;23.218;2023-11-22T12:51:55;37.83;;;23.92;;
43552;SDS011;29153;42.696;23.218;2023-11-22T12:54:23;40.08;;;23.90;;
43552;SDS011;29153;42.696;23.218;2023-11-22T12:56:52;38.23;;;24.95;;
43552;SDS011;29153;42.696;23.218;2023-11-22T12:59:22;37.33;;;24.07;;
43552;SDS011;29153;42.696;23.218;2023-11-22T13:01:50;37.70;;;21.77;;
43552;SDS011;29153;42.696;23.218;2023-11-22T13:06:45;25.08;;;15.72;;
43552;SDS011;29153;42.696;23.218;2023-11-22T13:09:12;25.50;;;15.00;;
43552;SDS011;29153;42.696;23.218;2023-11-22T13:11:43;23.87;;;13.68;;
43552;SDS011;29153;42.696;23.218;2023-11-22T13:16:42;23.45;;;12.13;;
43552;SDS011;29153;42.696;23.218;2023-11-22T13:21:37;22.62;;;10.88;;
43552;SDS011;29153;42.696;23.218;2023-11-22T13:24:06;21.45;;;12.23;;
43552;SDS011;29153;42.696;23.218;2023-11-22T13:26:34;21.68;;;11.18;;
43552;SDS011;29153;42.696;23.218;2023-11-22T13:29:02;20.05;;;11.35;;
43552;SDS011;29153;42.696;23.218;2023-11-22T13:31:30;19.00;;;10.80;;
43552;SDS011;29153;42.696;23.218;2023-11-22T13:33:57;21.30;;;12.33;;
43552;SDS011;29153;42.696;23.218;2023-11-22T13:36:25;22.13;;;11.90;;
43552;SDS011;29153;42.696;23.218;2023-11-22T13:38:53;22.22;;;12.47;;
43552;SDS011;29153;42.696;23.218;2023-11-22T13:41:21;20.52;;;12.80;;
43552;SDS011;29153;42.696;23.218;2023-11-22T13:43:50;19.80;;;11.97;;
43552;SDS011;29153;42.696;23.218;2023-11-22T13:46:18;22.48;;;13.00;;
43552;SDS011;29153;42.696;23.218;2023-11-22T13:48:46;21.93;;;13.10;;
43552;SDS011;29153;42.696;23.218;2023-11-22T13:51:13;21.12;;;12.93;;
43552;SDS011;29153;42.696;23.218;2023-11-22T13:53:41;23.30;;;13.00;;
43552;SDS011;29153;42.696;23.218;2023-11-22T13:56:10;27.90;;;14.33;;
43552;SDS011;29153;42.696;23.218;2023-11-22T13:58:38;26.37;;;15.15;;
43552;SDS011;29153;42.696;23.218;2023-11-22T14:01:05;25.90;;;14.07;;
43552;SDS011;29153;42.696;23.218;2023-11-22T14:03:35;22.98;;;14.63;;
43552;SDS011;29153;42.696;23.218;2023-11-22T14:06:02;23.05;;;13.48;;
43552;SDS011;29153;42.696;23.218;2023-11-22T14:08:30;27.22;;;15.98;;
43552;SDS011;29153;42.696;23.218;2023-11-22T14:10:58;24.52;;;15.18;;
43552;SDS011;29153;42.696;23.218;2023-11-22T14:13:26;28.67;;;14.98;;
43552;SDS011;29153;42.696;23.218;2023-11-22T14:15:53;22.70;;;13.03;;
43552;SDS011;29153;42.696;23.218;2023-11-22T14:18:21;23.35;;;14.03;;
43552;SDS011;29153;42.696;23.218;2023-11-22T14:20:50;25.00;;;13.88;;
43552;SDS011;29153;42.696;23.218;2023-11-22T14:23:19;21.80;;;13.72;;
43552;SDS011;29153;42.696;23.218;2023-11-22T14:25:48;23.70;;;15.40;;
43552;SDS011;29153;42.696;23.218;2023-11-22T14:28:15;20.88;;;13.22;;
43552;SDS011;29153;42.696;23.218;2023-11-22T14:30:44;23.42;;;15.25;;
43552;SDS011;29153;42.696;23.218;2023-11-22T14:33:12;24.92;;;14.68;;
43552;SDS011;29153;42.696;23.218;2023-11-22T14:35:41;26.75;;;17.85;;
43552;SDS011;29153;42.696;23.218;2023-11-22T14:38:09;22.60;;;14.58;;
43552;SDS011;29153;42.696;23.218;2023-11-22T14:40:39;23.95;;;15.38;;
43552;SDS011;29153;42.696;23.218;2023-11-22T14:43:07;23.85;;;13.53;;
43552;SDS011;29153;42.696;23.218;2023-11-22T14:45:35;22.90;;;14.55;;